sensor_id;sensor_type;location;lat;lon;timestamp;pressure;altitude;pressure_sealevel;temperature;humidity
69630;BME280;56857;52.212;5.496;2023-03-31T00:00:42;100392.66;;;10.22;100.00
69630;BME280;56857;52.212;5.496;2023-03-31T00:03:07;100380.94;;;10.16;100.00
69630;BME280;56857;52.212;5.496;2023-03-31T00:05:35;100375.00;;;10.14;100.00
69630;BME280;56857;52.212;5.496;2023-03-31T00:08:01;100360.28;;;10.12;100.00
69630;BME280;56857;52.212;5.496;2023-03-31T00:10:30;100354.34;;;10.10;100.00
69630;BME280;56857;52.212;5.496;2023-03-31T00:12:56;100344.75;;;10.09;100.00
69630;BME280;56857;52.212;5.496;2023-03-31T00:15:22;100346.41;;;10.10;100.00
69630;BME280;56857;52.212;5.496;2023-03-31T00:17:48;100347.56;;;10.07;100.00
69630;BME280;56857;52.212;5.496;2023-03-31T00:20:13;100339.63;;;10.07;100.00
69630;BME280;56857;52.212;5.496;2023-03-31T00:22:40;100333.50;;;10.07;100.00
69630;BME280;56857;52.212;5.496;2023-03-31T00:25:06;100325.38;;;10.08;100.00
69630;BME280;56857;52.212;5.496;2023-03-31T00:27:31;100328.88;;;10.09;100.00
69630;BME280;56857;52.212;5.496;2023-03-31T00:29:57;100325.22;;;10.10;100.00
69630;BME280;56857;52.212;5.496;2023-03-31T00:32:22;100314.44;;;10.11;100.00
69630;BME280;56857;52.212;5.496;2023-03-31T00:34:47;100311.78;;;10.11;100.00
69630;BME280;56857;52.212;5.496;2023-03-31T00:37:13;100302.84;;;10.12;100.00
69630;BME280;56857;52.212;5.496;2023-03-31T00:39:38;100304.50;;;10.13;100.00
69630;BME280;56857;52.212;5.496;2023-03-31T00:42:03;100301.47;;;10.16;100.00
69630;BME280;56857;52.212;5.496;2023-03-31T00:44:29;100291.91;;;10.15;100.00
69630;BME280;56857;52.212;5.496;2023-03-31T00:47:03;100294.34;;;10.17;100.00
69630;BME280;56857;52.212;5.496;2023-03-31T00:49:36;100284.56;;;10.17;100.00
69630;BME280;56857;52.212;5.496;2023-03-31T00:52:07;100274.63;;;10.19;100.00
69630;BME280;56857;52.212;5.496;2023-03-31T00:54:35;100265.50;;;10.22;100.00
69630;BME280;56857;52.212;5.496;2023-03-31T00:57:03;100257.56;;;10.22;100.00
69630;BME280;56857;52.212;5.496;2023-03-31T00:59:31;100252.44;;;10.20;100.00
69630;BME280;56857;52.212;5.496;2023-03-31T01:01:59;100251.25;;;10.23;100.00
69630;BME280;56857;52.212;5.496;2023-03-31T01:04:24;100245.78;;;10.25;100.00
69630;BME280;56857;52.212;5.496;2023-03-31T01:07:02;100244.13;;;10.24;100.00
69630;BME280;56857;52.212;5.496;2023-03-31T01:09:30;100236.19;;;10.24;100.00
69630;BME280;56857;52.212;5.496;2023-03-31T01:11:56;100232.38;;;10.26;100.00
69630;BME280;56857;52.212;5.496;2023-03-31T01:14:24;100238.50;;;10.27;100.00
69630;BME280;56857;52.212;5.496;2023-03-31T01:16:50;100234.88;;;10.28;100.00
69630;BME280;56857;52.212;5.496;2023-03-31T01:19:25;100226.06;;;10.27;100.00
69630;BME280;56857;52.212;5.496;2023-03-31T01:22:23;100216.31;;;10.28;100.00
69630;BME280;56857;52.212;5.496;2023-03-31T01:30:36;100197.38;;;10.31;100.00
69630;BME280;56857;52.212;5.496;2023-03-31T01:33:34;100180.66;;;10.30;100.00
69630;BME280;56857;52.212;5.496;2023-03-31T01:39:22;100175.56;;;10.29;100.00
69630;BME280;56857;52.212;5.496;2023-03-31T01:44:32;100161.50;;;10.28;100.00
69630;BME280;56857;52.212;5.496;2023-03-31T01:47:08;100151.91;;;10.27;100.00
69630;BME280;56857;52.212;5.496;2023-03-31T01:49:50;100153.72;;;10.27;100.00
69630;BME280;56857;52.212;5.496;2023-03-31T01:52:38;100151.25;;;10.25;100.00
69630;BME280;56857;52.212;5.496;2023-03-31T01:55:21;100138.00;;;10.25;100.00
69630;BME280;56857;52.212;5.496;2023-03-31T02:00:48;100133.53;;;10.26;100.00
69630;BME280;56857;52.212;5.496;2023-03-31T02:03:23;100119.28;;;10.27;100.00
69630;BME280;56857;52.212;5.496;2023-03-31T02:06:01;100125.25;;;10.29;100.00
69630;BME280;56857;52.212;5.496;2023-03-31T02:08:32;100111.19;;;10.28;100.00
69630;BME280;56857;52.212;5.496;2023-03-31T02:11:01;100105.88;;;10.28;100.00
69630;BME280;56857;52.212;5.496;2023-03-31T02:13:28;100101.56;;;10.27;100.00
69630;BME280;56857;52.212;5.496;2023-03-31T02:15:57;100095.63;;;10.25;100.00
69630;BME280;56857;52.212;5.496;2023-03-31T02:18:26;100092.00;;;10.26;100.00
69630;BME280;56857;52.212;5.496;2023-03-31T02:20:54;100080.38;;;10.27;100.00
69630;BME280;56857;52.212;5.496;2023-03-31T02:23:24;100078.75;;;10.26;100.00
69630;BME280;56857;52.212;5.496;2023-03-31T02:26:07;100071.63;;;10.27;100.00
69630;BME280;56857;52.212;5.496;2023-03-31T02:28:34;100066.31;;;10.27;100.00
69630;BME280;56857;52.212;5.496;2023-03-31T02:33:29;100047.59;;;10.28;100.00
69630;BME280;56857;52.212;5.496;2023-03-31T02:35:54;100050.88;;;10.30;100.00
69630;BME280;56857;52.212;5.496;2023-03-31T02:38:20;100036.63;;;10.31;100.00
69630;BME280;56857;52.212;5.496;2023-03-31T02:40:45;100030.50;;;10.31;100.00
69630;BME280;56857;52.212;5.496;2023-03-31T02:43:11;100027.84;;;10.31;100.00
69630;BME280;56857;52.212;5.496;2023-03-31T02:45:38;100018.09;;;10.31;100.00
69630;BME280;56857;52.212;5.496;2023-03-31T02:48:05;100012.78;;;10.31;100.00
69630;BME280;56857;52.212;5.496;2023-03-31T02:50:41;100010.97;;;10.32;100.00
69630;BME280;56857;52.212;5.496;2023-03-31T02:53:23;100002.00;;;10.33;100.00
69630;BME280;56857;52.212;5.496;2023-03-31T02:58:54;99987.72;;;10.34;100.00
69630;BME280;56857;52.212;5.496;2023-03-31T03:01:36;99980.81;;;10.33;100.00
69630;BME280;56857;52.212;5.496;2023-03-31T03:07:06;99964.09;;;10.32;100.00
69630;BME280;56857;52.212;5.496;2023-03-31T03:09:51;99963.06;;;10.33;100.00
69630;BME280;56857;52.212;5.496;2023-03-31T03:15:09;99946.75;;;10.30;100.00
69630;BME280;56857;52.212;5.496;2023-03-31T03:17:43;99936.16;;;10.30;100.00
69630;BME280;56857;52.212;5.496;2023-03-31T03:20:10;99937.78;;;10.31;100.00
69630;BME280;56857;52.212;5.496;2023-03-31T03:22:37;99931.66;;;10.30;100.00
69630;BME280;56857;52.212;5.496;2023-03-31T03:25:04;99922.09;;;10.29;100.00
69630;BME280;56857;52.212;5.496;2023-03-31T03:27:30;99910.69;;;10.29;100.00
69630;BME280;56857;52.212;5.496;2023-03-31T03:29:55;99914.34;;;10.28;100.00
69630;BME280;56857;52.212;5.496;2023-03-31T03:32:21;99906.56;;;10.26;100.00
69630;BME280;56857;52.212;5.496;2023-03-31T03:34:46;99905.72;;;10.26;100.00
69630;BME280;56857;52.212;5.496;2023-03-31T03:37:11;99902.25;;;10.25;100.00
69630;BME280;56857;52.212;5.496;2023-03-31T03:39:37;99893.69;;;10.23;100.00
69630;BME280;56857;52.212;5.496;2023-03-31T03:42:02;99892.44;;;10.19;100.00
69630;BME280;56857;52.212;5.496;2023-03-31T03:44:28;99886.31;;;10.18;100.00
69630;BME280;56857;52.212;5.496;2023-03-31T03:46:53;99881.19;;;10.17;100.00
69630;BME280;56857;52.212;5.496;2023-03-31T03:49:18;99870.81;;;10.15;100.00
69630;BME280;56857;52.212;5.496;2023-03-31T03:51:45;99870.16;;;10.13;100.00
69630;BME280;56857;52.212;5.496;2023-03-31T03:54:11;99863.25;;;10.12;100.00
69630;BME280;56857;52.212;5.496;2023-03-31T03:56:36;99852.66;;;10.12;100.00
69630;BME280;56857;52.212;5.496;2023-03-31T03:59:01;99841.03;;;10.13;100.00
69630;BME280;56857;52.212;5.496;2023-03-31T04:01:27;99831.47;;;10.12;100.00
69630;BME280;56857;52.212;5.496;2023-03-31T04:03:52;99837.13;;;10.09;100.00
69630;BME280;56857;52.212;5.496;2023-03-31T04:06:17;99830.19;;;10.08;100.00
69630;BME280;56857;52.212;5.496;2023-03-31T04:08:42;99827.75;;;10.07;100.00
69630;BME280;56857;52.212;5.496;2023-03-31T04:11:12;99829.75;;;10.05;100.00
69630;BME280;56857;52.212;5.496;2023-03-31T04:13:38;99821.00;;;10.04;100.00
69630;BME280;56857;52.212;5.496;2023-03-31T04:16:04;99820.34;;;10.02;100.00
69630;BME280;56857;52.212;5.496;2023-03-31T04:18:29;99816.88;;;10.02;100.00
69630;BME280;56857;52.212;5.496;2023-03-31T04:20:57;99816.88;;;10.02;100.00
69630;BME280;56857;52.212;5.496;2023-03-31T04:23:22;99802.03;;;10.01;100.00
69630;BME280;56857;52.212;5.496;2023-03-31T04:25:51;99796.47;;;9.95;100.00
69630;BME280;56857;52.212;5.496;2023-03-31T04:28:16;99791.56;;;9.92;100.00
69630;BME280;56857;52.212;5.496;2023-03-31T04:30:41;99778.53;;;9.91;100.00
69630;BME280;56857;52.212;5.496;2023-03-31T04:33:07;99765.47;;;9.89;100.00
69630;BME280;56857;52.212;5.496;2023-03-31T04:35:32;99770.16;;;9.87;100.00
69630;BME280;56857;52.212;5.496;2023-03-31T04:37:57;99756.91;;;9.87;100.00
69630;BME280;56857;52.212;5.496;2023-03-31T04:40:25;99746.88;;;9.83;100.00
69630;BME280;56857;52.212;5.496;2023-03-31T04:42:51;99744.06;;;9.84;100.00
69630;BME280;56857;52.212;5.496;2023-03-31T04:45:16;99734.28;;;9.85;100.00
69630;BME280;56857;52.212;5.496;2023-03-31T04:47:43;99722.69;;;9.86;100.00
69630;BME280;56857;52.212;5.496;2023-03-31T04:50:09;99712.72;;;9.88;100.00
69630;BME280;56857;52.212;5.496;2023-03-31T04:52:35;99711.91;;;9.87;100.00
69630;BME280;56857;52.212;5.496;2023-03-31T04:55:00;99702.69;;;9.83;100.00
69630;BME280;56857;52.212;5.496;2023-03-31T04:57:26;99700.66;;;9.79;100.00
69630;BME280;56857;52.212;5.496;2023-03-31T04:59:51;99692.66;;;9.72;100.00
69630;BME280;56857;52.212;5.496;2023-03-31T05:02:16;99693.22;;;9.67;100.00
69630;BME280;56857;52.212;5.496;2023-03-31T05:04:42;99686.50;;;9.65;100.00
69630;BME280;56857;52.212;5.496;2023-03-31T05:07:07;99690.56;;;9.67;100.00
69630;BME280;56857;52.212;5.496;2023-03-31T05:09:32;99683.47;;;9.68;100.00
69630;BME280;56857;52.212;5.496;2023-03-31T05:11:57;99671.66;;;9.70;100.00
69630;BME280;56857;52.212;5.496;2023-03-31T05:14:23;99671.09;;;9.75;100.00
69630;BME280;56857;52.212;5.496;2023-03-31T05:16:48;99666.63;;;9.75;100.00
69630;BME280;56857;52.212;5.496;2023-03-31T05:19:14;99659.50;;;9.76;100.00
69630;BME280;56857;52.212;5.496;2023-03-31T05:21:39;99652.59;;;9.75;100.00
69630;BME280;56857;52.212;5.496;2023-03-31T05:24:05;99648.09;;;9.75;100.00
69630;BME280;56857;52.212;5.496;2023-03-31T05:26:33;99639.16;;;9.77;100.00
69630;BME280;56857;52.212;5.496;2023-03-31T05:28:58;99643.25;;;9.79;100.00
69630;BME280;56857;52.212;5.496;2023-03-31T05:31:23;99637.94;;;9.79;100.00
69630;BME280;56857;52.212;5.496;2023-03-31T05:33:56;99633.47;;;9.80;100.00
69630;BME280;56857;52.212;5.496;2023-03-31T05:36:21;99632.47;;;9.81;100.00
69630;BME280;56857;52.212;5.496;2023-03-31T05:38:48;99626.16;;;9.82;100.00
69630;BME280;56857;52.212;5.496;2023-03-31T05:41:14;99623.31;;;9.83;100.00
69630;BME280;56857;52.212;5.496;2023-03-31T05:43:40;99625.13;;;9.83;100.00
69630;BME280;56857;52.212;5.496;2023-03-31T05:46:05;99619.84;;;9.83;100.00
69630;BME280;56857;52.212;5.496;2023-03-31T05:48:31;99614.38;;;9.84;100.00
69630;BME280;56857;52.212;5.496;2023-03-31T05:50:57;99607.03;;;9.86;100.00
69630;BME280;56857;52.212;5.496;2023-03-31T05:53:29;99599.31;;;9.85;100.00
69630;BME280;56857;52.212;5.496;2023-03-31T05:55:59;99600.94;;;9.86;100.00
69630;BME280;56857;52.212;5.496;2023-03-31T05:58:25;99600.94;;;9.86;100.00
69630;BME280;56857;52.212;5.496;2023-03-31T06:01:03;99593.00;;;9.86;100.00
69630;BME280;56857;52.212;5.496;2023-03-31T06:03:32;99584.88;;;9.87;100.00
69630;BME280;56857;52.212;5.496;2023-03-31T06:05:57;99584.88;;;9.87;100.00
69630;BME280;56857;52.212;5.496;2023-03-31T06:08:23;99587.31;;;9.89;100.00
69630;BME280;56857;52.212;5.496;2023-03-31T06:10:48;99583.84;;;9.88;100.00
69630;BME280;56857;52.212;5.496;2023-03-31T06:13:13;99578.56;;;9.88;100.00
69630;BME280;56857;52.212;5.496;2023-03-31T06:15:39;99582.00;;;9.89;100.00
69630;BME280;56857;52.212;5.496;2023-03-31T06:18:04;99571.41;;;9.89;100.00
69630;BME280;56857;52.212;5.496;2023-03-31T06:20:29;99573.88;;;9.90;100.00
69630;BME280;56857;52.212;5.496;2023-03-31T06:22:55;99577.34;;;9.91;100.00
69630;BME280;56857;52.212;5.496;2023-03-31T06:25:20;99574.69;;;9.91;100.00
69630;BME280;56857;52.212;5.496;2023-03-31T06:27:45;99564.28;;;9.89;100.00
69630;BME280;56857;52.212;5.496;2023-03-31T06:30:11;99566.75;;;9.91;100.00
69630;BME280;56857;52.212;5.496;2023-03-31T06:32:38;99557.78;;;9.92;100.00
69630;BME280;56857;52.212;5.496;2023-03-31T06:35:03;99559.41;;;9.93;100.00
69630;BME280;56857;52.212;5.496;2023-03-31T06:37:28;99555.16;;;9.92;100.00
69630;BME280;56857;52.212;5.496;2023-03-31T06:39:57;99561.25;;;9.92;100.00
69630;BME280;56857;52.212;5.496;2023-03-31T06:42:22;99546.19;;;9.93;100.00
69630;BME280;56857;52.212;5.496;2023-03-31T06:44:47;99555.78;;;9.94;100.00
69630;BME280;56857;52.212;5.496;2023-03-31T06:47:13;99537.03;;;9.95;100.00
69630;BME280;56857;52.212;5.496;2023-03-31T06:49:38;99540.72;;;9.94;100.00
69630;BME280;56857;52.212;5.496;2023-03-31T06:52:04;99544.81;;;9.97;100.00
69630;BME280;56857;52.212;5.496;2023-03-31T06:54:29;99535.66;;;10.00;100.00
69630;BME280;56857;52.212;5.496;2023-03-31T06:56:55;99535.84;;;9.98;100.00
69630;BME280;56857;52.212;5.496;2023-03-31T06:59:20;99528.91;;;9.97;100.00
69630;BME280;56857;52.212;5.496;2023-03-31T07:01:46;99535.19;;;9.96;100.00
69630;BME280;56857;52.212;5.496;2023-03-31T07:04:11;99525.47;;;9.96;100.00
69630;BME280;56857;52.212;5.496;2023-03-31T07:06:36;99538.69;;;9.96;100.00
69630;BME280;56857;52.212;5.496;2023-03-31T07:09:01;99528.69;;;9.98;100.00
69630;BME280;56857;52.212;5.496;2023-03-31T07:11:27;99519.94;;;9.98;100.00
69630;BME280;56857;52.212;5.496;2023-03-31T07:13:52;99533.19;;;9.98;100.00
69630;BME280;56857;52.212;5.496;2023-03-31T07:16:17;99530.53;;;9.98;100.00
69630;BME280;56857;52.212;5.496;2023-03-31T07:18:43;99527.88;;;9.98;100.00
69630;BME280;56857;52.212;5.496;2023-03-31T07:21:08;99520.97;;;9.97;100.00
69630;BME280;56857;52.212;5.496;2023-03-31T07:23:34;99528.53;;;10.00;100.00
69630;BME280;56857;52.212;5.496;2023-03-31T07:25:59;99522.19;;;10.01;100.00
69630;BME280;56857;52.212;5.496;2023-03-31T07:28:25;99530.56;;;10.05;100.00
69630;BME280;56857;52.212;5.496;2023-03-31T07:30:50;99521.81;;;10.04;100.00
69630;BME280;56857;52.212;5.496;2023-03-31T07:33:15;99518.13;;;10.05;100.00
69630;BME280;56857;52.212;5.496;2023-03-31T07:35:45;99521.63;;;10.06;100.00
69630;BME280;56857;52.212;5.496;2023-03-31T07:38:11;99521.63;;;10.06;100.00
69630;BME280;56857;52.212;5.496;2023-03-31T07:40:37;99513.88;;;10.04;100.00
69630;BME280;56857;52.212;5.496;2023-03-31T07:43:09;99512.25;;;10.03;100.00
69630;BME280;56857;52.212;5.496;2023-03-31T07:45:38;99514.69;;;10.05;100.00
69630;BME280;56857;52.212;5.496;2023-03-31T07:48:03;99508.56;;;10.04;100.00
69630;BME280;56857;52.212;5.496;2023-03-31T07:50:29;99507.75;;;10.04;100.00
69630;BME280;56857;52.212;5.496;2023-03-31T07:52:55;99498.59;;;10.06;100.00
69630;BME280;56857;52.212;5.496;2023-03-31T07:55:20;99508.00;;;10.09;100.00
69630;BME280;56857;52.212;5.496;2023-03-31T07:57:46;99504.31;;;10.10;100.00
69630;BME280;56857;52.212;5.496;2023-03-31T08:00:12;99496.16;;;10.11;100.00
69630;BME280;56857;52.212;5.496;2023-03-31T08:02:39;99494.53;;;10.10;100.00
69630;BME280;56857;52.212;5.496;2023-03-31T08:05:06;99503.50;;;10.09;100.00
69630;BME280;56857;52.212;5.496;2023-03-31T08:07:36;99502.69;;;10.09;100.00
69630;BME280;56857;52.212;5.496;2023-03-31T08:10:04;99497.59;;;10.07;100.00
69630;BME280;56857;52.212;5.496;2023-03-31T08:12:30;99488.03;;;10.06;100.00
69630;BME280;56857;52.212;5.496;2023-03-31T08:14:55;99487.63;;;10.09;100.00
69630;BME280;56857;52.212;5.496;2023-03-31T08:17:21;99495.34;;;10.11;100.00
69630;BME280;56857;52.212;5.496;2023-03-31T08:19:48;99493.94;;;10.15;100.00
69630;BME280;56857;52.212;5.496;2023-03-31T08:22:14;99494.38;;;10.18;100.00
69630;BME280;56857;52.212;5.496;2023-03-31T08:24:39;99483.38;;;10.21;100.00
69630;BME280;56857;52.212;5.496;2023-03-31T08:27:04;99478.31;;;10.27;100.00
69630;BME280;56857;52.212;5.496;2023-03-31T08:29:32;99470.78;;;10.30;100.00
69630;BME280;56857;52.212;5.496;2023-03-31T08:31:58;99475.28;;;10.36;100.00
69630;BME280;56857;52.212;5.496;2023-03-31T08:34:23;99472.84;;;10.41;100.00
69630;BME280;56857;52.212;5.496;2023-03-31T08:36:48;99471.81;;;10.42;100.00
69630;BME280;56857;52.212;5.496;2023-03-31T08:39:14;99469.16;;;10.42;100.00
69630;BME280;56857;52.212;5.496;2023-03-31T08:45:04;99475.28;;;10.43;100.00
69630;BME280;56857;52.212;5.496;2023-03-31T08:47:25;99467.94;;;10.45;100.00
69630;BME280;56857;52.212;5.496;2023-03-31T08:49:57;99465.31;;;10.45;100.00
69630;BME280;56857;52.212;5.496;2023-03-31T08:52:37;99453.69;;;10.46;100.00
69630;BME280;56857;52.212;5.496;2023-03-31T08:55:09;99448.59;;;10.44;100.00
69630;BME280;56857;52.212;5.496;2023-03-31T08:57:54;99449.63;;;10.43;100.00
69630;BME280;56857;52.212;5.496;2023-03-31T09:00:23;99446.56;;;10.47;100.00
69630;BME280;56857;52.212;5.496;2023-03-31T09:03:04;99449.22;;;10.47;100.00
69630;BME280;56857;52.212;5.496;2023-03-31T09:05:57;99455.75;;;10.51;100.00
69630;BME280;56857;52.212;5.496;2023-03-31T09:16:32;99434.72;;;10.56;100.00
69630;BME280;56857;52.212;5.496;2023-03-31T09:19:00;99441.69;;;10.63;100.00
69630;BME280;56857;52.212;5.496;2023-03-31T09:21:48;99427.00;;;10.67;100.00
69630;BME280;56857;52.212;5.496;2023-03-31T09:24:29;99419.66;;;10.70;100.00
69630;BME280;56857;52.212;5.496;2023-03-31T09:26:57;99420.25;;;10.72;100.00
69630;BME280;56857;52.212;5.496;2023-03-31T09:29:44;99417.59;;;10.72;100.00
69630;BME280;56857;52.212;5.496;2023-03-31T09:32:23;99423.34;;;10.75;100.00
69630;BME280;56857;52.212;5.496;2023-03-31T09:35:01;99417.00;;;10.76;100.00
69630;BME280;56857;52.212;5.496;2023-03-31T09:37:30;99404.97;;;10.80;100.00
69630;BME280;56857;52.212;5.496;2023-03-31T09:39:59;99410.06;;;10.82;100.00
69630;BME280;56857;52.212;5.496;2023-03-31T09:42:26;99413.13;;;10.85;100.00
69630;BME280;56857;52.212;5.496;2023-03-31T09:44:51;99407.81;;;10.92;100.00
69630;BME280;56857;52.212;5.496;2023-03-31T09:47:30;99400.44;;;11.01;100.00
69630;BME280;56857;52.212;5.496;2023-03-31T09:49:56;99402.69;;;11.10;100.00
69630;BME280;56857;52.212;5.496;2023-03-31T09:52:33;99396.94;;;11.13;100.00
69630;BME280;56857;52.212;5.496;2023-03-31T09:55:03;99390.84;;;11.13;100.00
69630;BME280;56857;52.212;5.496;2023-03-31T09:57:38;99388.19;;;11.13;100.00
69630;BME280;56857;52.212;5.496;2023-03-31T10:00:14;99390.44;;;11.16;100.00
69630;BME280;56857;52.212;5.496;2023-03-31T10:02:53;99394.44;;;11.25;100.00
69630;BME280;56857;52.212;5.496;2023-03-31T10:05:47;99399.13;;;11.36;100.00
69630;BME280;56857;52.212;5.496;2023-03-31T10:10:49;99388.25;;;11.51;100.00
69630;BME280;56857;52.212;5.496;2023-03-31T10:13:46;99387.19;;;11.59;100.00
69630;BME280;56857;52.212;5.496;2023-03-31T10:16:27;99390.81;;;11.71;100.00
69630;BME280;56857;52.212;5.496;2023-03-31T10:18:54;99377.28;;;11.79;100.00
69630;BME280;56857;52.212;5.496;2023-03-31T10:21:23;99375.81;;;11.83;100.00
69630;BME280;56857;52.212;5.496;2023-03-31T10:23:50;99381.75;;;11.92;100.00
69630;BME280;56857;52.212;5.496;2023-03-31T10:26:21;99376.00;;;11.95;100.00
69630;BME280;56857;52.212;5.496;2023-03-31T10:28:49;99377.00;;;11.94;100.00
69630;BME280;56857;52.212;5.496;2023-03-31T10:31:15;99369.66;;;11.96;100.00
69630;BME280;56857;52.212;5.496;2023-03-31T10:33:48;99368.63;;;11.97;100.00
69630;BME280;56857;52.212;5.496;2023-03-31T10:36:24;99364.94;;;11.98;100.00
69630;BME280;56857;52.212;5.496;2023-03-31T10:38:53;99361.44;;;12.04;100.00
69630;BME280;56857;52.212;5.496;2023-03-31T10:41:21;99355.28;;;12.11;100.00
69630;BME280;56857;52.212;5.496;2023-03-31T10:43:55;99356.84;;;12.18;100.00
69630;BME280;56857;52.212;5.496;2023-03-31T10:46:56;99352.94;;;12.21;100.00
69630;BME280;56857;52.212;5.496;2023-03-31T10:49:26;99342.75;;;12.18;100.00
69630;BME280;56857;52.212;5.496;2023-03-31T10:51:55;99340.22;;;12.23;100.00
69630;BME280;56857;52.212;5.496;2023-03-31T10:54:21;99335.09;;;12.28;100.00
69630;BME280;56857;52.212;5.496;2023-03-31T10:57:00;99329.56;;;12.29;100.00
69630;BME280;56857;52.212;5.496;2023-03-31T11:02:43;99326.94;;;12.23;100.00
69630;BME280;56857;52.212;5.496;2023-03-31T11:07:47;99342.19;;;12.09;100.00
69630;BME280;56857;52.212;5.496;2023-03-31T11:10:38;99334.66;;;12.06;100.00
69630;BME280;56857;52.212;5.496;2023-03-31T11:14:20;99335.31;;;12.01;100.00
69630;BME280;56857;52.212;5.496;2023-03-31T11:22:21;99330.91;;;11.82;100.00
69630;BME280;56857;52.212;5.496;2023-03-31T11:27:35;99334.25;;;11.71;100.00
69630;BME280;56857;52.212;5.496;2023-03-31T11:30:21;99338.53;;;11.72;100.00
69630;BME280;56857;52.212;5.496;2023-03-31T11:38:29;99324.47;;;11.65;100.00
69630;BME280;56857;52.212;5.496;2023-03-31T11:41:32;99320.41;;;11.62;100.00
69630;BME280;56857;52.212;5.496;2023-03-31T11:44:02;99315.53;;;11.59;100.00
69630;BME280;56857;52.212;5.496;2023-03-31T11:49:32;99310.88;;;11.54;100.00
69630;BME280;56857;52.212;5.496;2023-03-31T11:52:02;99312.09;;;11.52;100.00
69630;BME280;56857;52.212;5.496;2023-03-31T11:54:30;99311.28;;;11.51;100.00
69630;BME280;56857;52.212;5.496;2023-03-31T11:57:02;99321.09;;;11.51;100.00
69630;BME280;56857;52.212;5.496;2023-03-31T11:59:32;99329.88;;;11.51;100.00
69630;BME280;56857;52.212;5.496;2023-03-31T12:04:46;99325.22;;;11.40;100.00
69630;BME280;56857;52.212;5.496;2023-03-31T12:10:20;99330.97;;;11.30;100.00
69630;BME280;56857;52.212;5.496;2023-03-31T12:16:03;99345.31;;;11.23;100.00
69630;BME280;56857;52.212;5.496;2023-03-31T12:18:36;99337.34;;;11.23;100.00
69630;BME280;56857;52.212;5.496;2023-03-31T12:21:05;99324.94;;;11.17;100.00
69630;BME280;56857;52.212;5.496;2023-03-31T12:23:37;99306.97;;;11.12;100.00
69630;BME280;56857;52.212;5.496;2023-03-31T12:28:38;99302.34;;;11.01;100.00
69630;BME280;56857;52.212;5.496;2023-03-31T12:31:08;99306.66;;;10.95;100.00
69630;BME280;56857;52.212;5.496;2023-03-31T12:36:21;99305.22;;;10.93;100.00
69630;BME280;56857;52.212;5.496;2023-03-31T12:57:25;99286.50;;;10.81;100.00
69630;BME280;56857;52.212;5.496;2023-03-31T13:02:40;99281.41;;;10.79;100.00
69630;BME280;56857;52.212;5.496;2023-03-31T13:08:06;99267.94;;;10.81;100.00
69630;BME280;56857;52.212;5.496;2023-03-31T13:10:55;99265.69;;;10.84;100.00
69630;BME280;56857;52.212;5.496;2023-03-31T13:13:19;99262.19;;;10.90;100.00
69630;BME280;56857;52.212;5.496;2023-03-31T13:15:57;99259.53;;;10.97;100.00
69630;BME280;56857;52.212;5.496;2023-03-31T13:18:26;99259.69;;;11.02;100.00
69630;BME280;56857;52.212;5.496;2023-03-31T13:21:03;99250.28;;;11.06;100.00
69630;BME280;56857;52.212;5.496;2023-03-31T13:23:34;99253.78;;;11.07;100.00
69630;BME280;56857;52.212;5.496;2023-03-31T13:26:00;99251.13;;;11.07;100.00
69630;BME280;56857;52.212;5.496;2023-03-31T13:28:31;99247.63;;;11.06;100.00
69630;BME280;56857;52.212;5.496;2023-03-31T13:33:30;99246.03;;;11.05;100.00
69630;BME280;56857;52.212;5.496;2023-03-31T13:39:26;99235.63;;;11.04;100.00
69630;BME280;56857;52.212;5.496;2023-03-31T13:42:31;99242.38;;;11.00;100.00
69630;BME280;56857;52.212;5.496;2023-03-31T13:45:14;99237.28;;;10.98;100.00
69630;BME280;56857;52.212;5.496;2023-03-31T13:47:57;99224.50;;;10.88;100.00
69630;BME280;56857;52.212;5.496;2023-03-31T13:50:40;99230.41;;;10.84;100.00
69630;BME280;56857;52.212;5.496;2023-03-31T13:56:30;99227.34;;;10.87;100.00
69630;BME280;56857;52.212;5.496;2023-03-31T13:59:42;99233.63;;;10.93;100.00
69630;BME280;56857;52.212;5.496;2023-03-31T14:05:35;99228.31;;;10.99;100.00
69630;BME280;56857;52.212;5.496;2023-03-31T14:08:08;99221.34;;;11.05;100.00
69630;BME280;56857;52.212;5.496;2023-03-31T14:10:36;99212.53;;;11.11;100.00
69630;BME280;56857;52.212;5.496;2023-03-31T14:13:10;99216.19;;;11.17;100.00
69630;BME280;56857;52.212;5.496;2023-03-31T14:15:48;99210.47;;;11.20;100.00
69630;BME280;56857;52.212;5.496;2023-03-31T14:18:20;99217.59;;;11.19;100.00
69630;BME280;56857;52.212;5.496;2023-03-31T14:26:43;99207.69;;;11.01;100.00
69630;BME280;56857;52.212;5.496;2023-03-31T14:32:20;99195.06;;;10.97;100.00
69630;BME280;56857;52.212;5.496;2023-03-31T14:35:27;99193.03;;;10.99;100.00
69630;BME280;56857;52.212;5.496;2023-03-31T14:37:58;99195.44;;;11.07;100.00
69630;BME280;56857;52.212;5.496;2023-03-31T14:40:27;99183.38;;;11.11;100.00
69630;BME280;56857;52.212;5.496;2023-03-31T14:42:52;99183.75;;;11.14;100.00
69630;BME280;56857;52.212;5.496;2023-03-31T14:45:24;99186.41;;;11.14;100.00
69630;BME280;56857;52.212;5.496;2023-03-31T14:48:01;99176.84;;;11.13;100.00
69630;BME280;56857;52.212;5.496;2023-03-31T14:50:34;99176.03;;;11.13;100.00
69630;BME280;56857;52.212;5.496;2023-03-31T14:52:59;99179.69;;;11.12;100.00
69630;BME280;56857;52.212;5.496;2023-03-31T14:55:27;99177.25;;;11.10;100.00
69630;BME280;56857;52.212;5.496;2023-03-31T14:57:55;99174.81;;;11.09;100.00
69630;BME280;56857;52.212;5.496;2023-03-31T15:00:26;99170.97;;;11.05;100.00
69630;BME280;56857;52.212;5.496;2023-03-31T15:02:53;99174.28;;;11.00;100.00
69630;BME280;56857;52.212;5.496;2023-03-31T15:05:28;99178.78;;;10.93;100.00
69630;BME280;56857;52.212;5.496;2023-03-31T15:08:06;99180.69;;;10.79;100.00